sensor_id;sensor_type;location;lat;lon;timestamp;pressure;altitude;pressure_sealevel;temperature;humidity
60611;BME280;46439;51.164;13.572;2023-02-25T00:01:21;98162.29;;;3.77;84.74
60611;BME280;46439;51.164;13.572;2023-02-25T00:03:53;98163.16;;;3.77;84.53
60611;BME280;46439;51.164;13.572;2023-02-25T00:06:23;98158.86;;;3.73;84.34
60611;BME280;46439;51.164;13.572;2023-02-25T00:08:52;98158.52;;;3.68;84.64
60611;BME280;46439;51.164;13.572;2023-02-25T00:11:23;98158.00;;;3.65;84.38
60611;BME280;46439;51.164;13.572;2023-02-25T00:13:52;98157.77;;;3.65;84.55
60611;BME280;46439;51.164;13.572;2023-02-25T00:16:22;98152.97;;;3.65;84.64
60611;BME280;46439;51.164;13.572;2023-02-25T00:18:55;98152.29;;;3.66;84.50
60611;BME280;46439;51.164;13.572;2023-02-25T00:21:25;98152.29;;;3.73;84.83
60611;BME280;46439;51.164;13.572;2023-02-25T00:24:14;98147.26;;;3.79;84.91
60611;BME280;46439;51.164;13.572;2023-02-25T00:26:44;98146.75;;;3.83;85.20
60611;BME280;46439;51.164;13.572;2023-02-25T00:29:31;98144.44;;;3.85;85.00
60611;BME280;46439;51.164;13.572;2023-02-25T00:32:00;98145.16;;;3.85;84.74
60611;BME280;46439;51.164;13.572;2023-02-25T00:34:29;98148.67;;;3.85;84.92
60611;BME280;46439;51.164;13.572;2023-02-25T00:36:57;98149.80;;;3.86;85.03
60611;BME280;46439;51.164;13.572;2023-02-25T00:39:26;98149.27;;;3.88;85.05
60611;BME280;46439;51.164;13.572;2023-02-25T00:42:11;98146.61;;;3.88;85.02
60611;BME280;46439;51.164;13.572;2023-02-25T00:44:41;98148.30;;;3.88;85.18
60611;BME280;46439;51.164;13.572;2023-02-25T00:47:10;98148.14;;;3.90;85.01
60611;BME280;46439;51.164;13.572;2023-02-25T00:49:39;98145.19;;;3.92;85.06
60611;BME280;46439;51.164;13.572;2023-02-25T00:52:07;98142.60;;;3.93;85.19
60611;BME280;46439;51.164;13.572;2023-02-25T00:54:36;98145.48;;;3.91;85.02
60611;BME280;46439;51.164;13.572;2023-02-25T00:57:06;98141.54;;;3.92;84.91
60611;BME280;46439;51.164;13.572;2023-02-25T00:59:35;98137.41;;;3.87;84.79
60611;BME280;46439;51.164;13.572;2023-02-25T01:02:04;98133.56;;;3.88;85.06
60611;BME280;46439;51.164;13.572;2023-02-25T01:04:33;98138.39;;;3.87;85.13
60611;BME280;46439;51.164;13.572;2023-02-25T01:07:01;98133.89;;;3.85;85.20
60611;BME280;46439;51.164;13.572;2023-02-25T01:09:30;98128.25;;;3.87;84.86
60611;BME280;46439;51.164;13.572;2023-02-25T01:11:58;98127.77;;;3.88;85.25
60611;BME280;46439;51.164;13.572;2023-02-25T01:14:26;98119.75;;;3.88;84.77
60611;BME280;46439;51.164;13.572;2023-02-25T01:16:55;98121.05;;;3.89;85.13
60611;BME280;46439;51.164;13.572;2023-02-25T01:19:25;98120.05;;;3.90;85.09
60611;BME280;46439;51.164;13.572;2023-02-25T01:21:56;98116.95;;;3.89;85.22
60611;BME280;46439;51.164;13.572;2023-02-25T01:24:26;98114.12;;;3.89;84.83
60611;BME280;46439;51.164;13.572;2023-02-25T01:26:57;98113.81;;;3.88;85.01
60611;BME280;46439;51.164;13.572;2023-02-25T01:29:27;98112.59;;;3.89;85.22
60611;BME280;46439;51.164;13.572;2023-02-25T01:31:58;98119.92;;;3.91;84.99
60611;BME280;46439;51.164;13.572;2023-02-25T01:34:27;98115.17;;;3.89;85.11
60611;BME280;46439;51.164;13.572;2023-02-25T01:36:56;98114.73;;;3.87;85.29
60611;BME280;46439;51.164;13.572;2023-02-25T01:39:26;98120.86;;;3.82;85.05
60611;BME280;46439;51.164;13.572;2023-02-25T01:41:57;98120.83;;;3.80;84.82
60611;BME280;46439;51.164;13.572;2023-02-25T01:44:30;98123.28;;;3.79;85.15
60611;BME280;46439;51.164;13.572;2023-02-25T01:46:59;98119.98;;;3.75;84.77
60611;BME280;46439;51.164;13.572;2023-02-25T01:49:31;98122.30;;;3.72;84.57
60611;BME280;46439;51.164;13.572;2023-02-25T01:52:00;98120.58;;;3.70;84.97
60611;BME280;46439;51.164;13.572;2023-02-25T01:54:30;98119.76;;;3.68;84.67
60611;BME280;46439;51.164;13.572;2023-02-25T01:57:00;98116.84;;;3.65;84.94
60611;BME280;46439;51.164;13.572;2023-02-25T01:59:30;98114.07;;;3.68;84.84
60611;BME280;46439;51.164;13.572;2023-02-25T02:01:59;98116.61;;;3.68;85.23
60611;BME280;46439;51.164;13.572;2023-02-25T02:04:28;98116.11;;;3.67;85.09
60611;BME280;46439;51.164;13.572;2023-02-25T02:06:58;98113.46;;;3.66;84.96
60611;BME280;46439;51.164;13.572;2023-02-25T02:09:28;98110.52;;;3.68;85.30
60611;BME280;46439;51.164;13.572;2023-02-25T02:11:59;98108.18;;;3.68;84.86
60611;BME280;46439;51.164;13.572;2023-02-25T02:14:33;98108.81;;;3.69;85.06
60611;BME280;46439;51.164;13.572;2023-02-25T02:17:19;98103.91;;;3.68;85.11
60611;BME280;46439;51.164;13.572;2023-02-25T02:20:01;98104.08;;;3.68;85.31
60611;BME280;46439;51.164;13.572;2023-02-25T02:22:45;98099.05;;;3.69;84.84
60611;BME280;46439;51.164;13.572;2023-02-25T02:28:44;98094.23;;;3.70;85.15
60611;BME280;46439;51.164;13.572;2023-02-25T02:34:22;98085.48;;;3.72;85.33
60611;BME280;46439;51.164;13.572;2023-02-25T02:37:04;98087.36;;;3.74;85.23
60611;BME280;46439;51.164;13.572;2023-02-25T02:39:48;98079.94;;;3.75;85.36
60611;BME280;46439;51.164;13.572;2023-02-25T02:42:24;98081.24;;;3.75;85.28
60611;BME280;46439;51.164;13.572;2023-02-25T02:45:00;98084.30;;;3.73;85.23
60611;BME280;46439;51.164;13.572;2023-02-25T02:47:33;98087.50;;;3.73;85.16
60611;BME280;46439;51.164;13.572;2023-02-25T02:50:05;98090.59;;;3.71;85.17
60611;BME280;46439;51.164;13.572;2023-02-25T02:52:33;98081.80;;;3.69;85.29
60611;BME280;46439;51.164;13.572;2023-02-25T02:55:09;98084.79;;;3.65;85.37
60611;BME280;46439;51.164;13.572;2023-02-25T02:57:41;98088.27;;;3.63;84.90
60611;BME280;46439;51.164;13.572;2023-02-25T03:00:14;98087.11;;;3.61;85.26
60611;BME280;46439;51.164;13.572;2023-02-25T03:02:48;98086.54;;;3.60;85.26
60611;BME280;46439;51.164;13.572;2023-02-25T03:05:18;98088.27;;;3.57;85.14
60611;BME280;46439;51.164;13.572;2023-02-25T03:07:51;98093.64;;;3.54;85.20
60611;BME280;46439;51.164;13.572;2023-02-25T03:10:22;98089.93;;;3.49;85.07
60611;BME280;46439;51.164;13.572;2023-02-25T03:12:51;98092.55;;;3.43;84.97
60611;BME280;46439;51.164;13.572;2023-02-25T03:15:19;98094.34;;;3.42;84.81
60611;BME280;46439;51.164;13.572;2023-02-25T03:17:52;98096.40;;;3.41;85.06
60611;BME280;46439;51.164;13.572;2023-02-25T03:20:26;98094.77;;;3.41;85.12
60611;BME280;46439;51.164;13.572;2023-02-25T03:22:57;98093.01;;;3.41;85.27
60611;BME280;46439;51.164;13.572;2023-02-25T03:25:31;98096.28;;;3.39;85.02
60611;BME280;46439;51.164;13.572;2023-02-25T03:28:06;98100.63;;;3.38;84.83
60611;BME280;46439;51.164;13.572;2023-02-25T03:30:46;98099.14;;;3.36;84.91
60611;BME280;46439;51.164;13.572;2023-02-25T03:33:20;98107.34;;;3.35;84.78
60611;BME280;46439;51.164;13.572;2023-02-25T03:35:55;98108.45;;;3.35;84.97
60611;BME280;46439;51.164;13.572;2023-02-25T03:38:27;98110.48;;;3.33;84.83
60611;BME280;46439;51.164;13.572;2023-02-25T03:41:00;98115.40;;;3.32;85.25
60611;BME280;46439;51.164;13.572;2023-02-25T03:43:35;98117.30;;;3.32;85.05
60611;BME280;46439;51.164;13.572;2023-02-25T03:46:07;98120.97;;;3.33;84.75
60611;BME280;46439;51.164;13.572;2023-02-25T03:48:37;98118.52;;;3.33;84.95
60611;BME280;46439;51.164;13.572;2023-02-25T03:51:07;98124.67;;;3.32;85.09
60611;BME280;46439;51.164;13.572;2023-02-25T03:53:36;98130.94;;;3.28;84.79
60611;BME280;46439;51.164;13.572;2023-02-25T03:56:08;98135.38;;;3.26;84.95
60611;BME280;46439;51.164;13.572;2023-02-25T03:58:39;98138.06;;;3.23;84.80
60611;BME280;46439;51.164;13.572;2023-02-25T04:01:10;98142.09;;;3.21;84.82
60611;BME280;46439;51.164;13.572;2023-02-25T04:03:39;98151.52;;;3.19;85.08
60611;BME280;46439;51.164;13.572;2023-02-25T04:06:08;98159.23;;;3.17;84.75
60611;BME280;46439;51.164;13.572;2023-02-25T04:08:36;98162.15;;;3.13;84.48
60611;BME280;46439;51.164;13.572;2023-02-25T04:11:05;98163.94;;;3.10;85.04
60611;BME280;46439;51.164;13.572;2023-02-25T04:13:33;98168.27;;;3.05;84.89
60611;BME280;46439;51.164;13.572;2023-02-25T04:16:02;98172.81;;;3.02;84.33
60611;BME280;46439;51.164;13.572;2023-02-25T04:18:31;98173.19;;;2.99;84.78
60611;BME280;46439;51.164;13.572;2023-02-25T04:20:59;98178.42;;;2.98;84.69
60611;BME280;46439;51.164;13.572;2023-02-25T04:23:27;98176.82;;;2.94;84.44
60611;BME280;46439;51.164;13.572;2023-02-25T04:25:56;98181.98;;;2.92;84.65
60611;BME280;46439;51.164;13.572;2023-02-25T04:28:24;98181.27;;;2.87;84.91
60611;BME280;46439;51.164;13.572;2023-02-25T04:30:53;98185.41;;;2.83;84.42
60611;BME280;46439;51.164;13.572;2023-02-25T04:33:21;98184.47;;;2.79;84.69
60611;BME280;46439;51.164;13.572;2023-02-25T04:35:51;98186.94;;;2.78;84.86
60611;BME280;46439;51.164;13.572;2023-02-25T04:38:19;98189.52;;;2.78;85.01
60611;BME280;46439;51.164;13.572;2023-02-25T04:40:51;98187.52;;;2.76;84.37
60611;BME280;46439;51.164;13.572;2023-02-25T04:43:19;98185.56;;;2.73;84.41
60611;BME280;46439;51.164;13.572;2023-02-25T04:45:48;98189.20;;;2.72;84.67
60611;BME280;46439;51.164;13.572;2023-02-25T04:48:16;98189.36;;;2.72;84.69
60611;BME280;46439;51.164;13.572;2023-02-25T04:50:51;98193.48;;;2.72;84.81
60611;BME280;46439;51.164;13.572;2023-02-25T04:53:20;98198.99;;;2.70;84.51
60611;BME280;46439;51.164;13.572;2023-02-25T04:55:48;98198.56;;;2.69;84.74
60611;BME280;46439;51.164;13.572;2023-02-25T04:58:17;98196.67;;;2.67;84.46
60611;BME280;46439;51.164;13.572;2023-02-25T05:00:45;98198.17;;;2.64;84.46
60611;BME280;46439;51.164;13.572;2023-02-25T05:03:16;98198.55;;;2.63;84.91
60611;BME280;46439;51.164;13.572;2023-02-25T05:05:44;98196.27;;;2.61;84.81
60611;BME280;46439;51.164;13.572;2023-02-25T05:08:13;98199.95;;;2.60;84.94
60611;BME280;46439;51.164;13.572;2023-02-25T05:10:41;98199.13;;;2.59;84.50
60611;BME280;46439;51.164;13.572;2023-02-25T05:13:10;98203.76;;;2.59;84.88
60611;BME280;46439;51.164;13.572;2023-02-25T05:15:39;98203.86;;;2.58;84.69
60611;BME280;46439;51.164;13.572;2023-02-25T05:18:07;98207.80;;;2.57;84.64
60611;BME280;46439;51.164;13.572;2023-02-25T05:20:40;98208.29;;;2.54;84.68
60611;BME280;46439;51.164;13.572;2023-02-25T05:23:09;98214.55;;;2.51;84.66
60611;BME280;46439;51.164;13.572;2023-02-25T05:25:38;98212.63;;;2.49;84.75
60611;BME280;46439;51.164;13.572;2023-02-25T05:28:08;98218.73;;;2.47;84.56
60611;BME280;46439;51.164;13.572;2023-02-25T05:30:39;98221.01;;;2.46;84.50
60611;BME280;46439;51.164;13.572;2023-02-25T05:33:08;98225.10;;;2.43;84.41
60611;BME280;46439;51.164;13.572;2023-02-25T05:35:39;98225.11;;;2.39;84.63
60611;BME280;46439;51.164;13.572;2023-02-25T05:38:08;98229.16;;;2.38;84.60
60611;BME280;46439;51.164;13.572;2023-02-25T05:40:38;98234.59;;;2.37;84.92
60611;BME280;46439;51.164;13.572;2023-02-25T05:43:07;98237.92;;;2.36;84.95
60611;BME280;46439;51.164;13.572;2023-02-25T05:45:36;98244.29;;;2.33;84.89
60611;BME280;46439;51.164;13.572;2023-02-25T05:48:05;98242.77;;;2.31;84.49
60611;BME280;46439;51.164;13.572;2023-02-25T05:50:33;98251.11;;;2.29;84.83
60611;BME280;46439;51.164;13.572;2023-02-25T05:53:08;98253.75;;;2.30;84.49
60611;BME280;46439;51.164;13.572;2023-02-25T05:55:41;98249.85;;;2.29;84.60
60611;BME280;46439;51.164;13.572;2023-02-25T05:58:10;98253.18;;;2.26;84.87
60611;BME280;46439;51.164;13.572;2023-02-25T06:00:39;98256.85;;;2.24;84.72
60611;BME280;46439;51.164;13.572;2023-02-25T06:03:08;98262.51;;;2.22;84.86
60611;BME280;46439;51.164;13.572;2023-02-25T06:05:40;98262.41;;;2.20;84.32
60611;BME280;46439;51.164;13.572;2023-02-25T06:08:09;98264.33;;;2.17;84.55
60611;BME280;46439;51.164;13.572;2023-02-25T06:10:38;98266.12;;;2.13;84.49
60611;BME280;46439;51.164;13.572;2023-02-25T06:13:08;98270.80;;;2.09;84.44
60611;BME280;46439;51.164;13.572;2023-02-25T06:15:39;98273.61;;;2.09;84.39
60611;BME280;46439;51.164;13.572;2023-02-25T06:18:07;98272.69;;;2.10;84.72
60611;BME280;46439;51.164;13.572;2023-02-25T06:20:36;98275.85;;;2.10;84.55
60611;BME280;46439;51.164;13.572;2023-02-25T06:23:05;98280.70;;;2.11;84.77
60611;BME280;46439;51.164;13.572;2023-02-25T06:25:33;98285.02;;;2.12;84.91
60611;BME280;46439;51.164;13.572;2023-02-25T06:28:03;98289.02;;;2.13;84.72
60611;BME280;46439;51.164;13.572;2023-02-25T06:30:32;98294.81;;;2.14;84.34
60611;BME280;46439;51.164;13.572;2023-02-25T06:33:00;98296.64;;;2.15;84.89
60611;BME280;46439;51.164;13.572;2023-02-25T06:35:28;98298.70;;;2.17;84.91
60611;BME280;46439;51.164;13.572;2023-02-25T06:37:58;98306.33;;;2.19;85.03
60611;BME280;46439;51.164;13.572;2023-02-25T06:40:27;98310.55;;;2.19;84.98
60611;BME280;46439;51.164;13.572;2023-02-25T06:42:56;98312.68;;;2.21;85.14
60611;BME280;46439;51.164;13.572;2023-02-25T06:45:24;98320.94;;;2.23;84.97
60611;BME280;46439;51.164;13.572;2023-02-25T06:47:53;98325.00;;;2.27;85.13
60611;BME280;46439;51.164;13.572;2023-02-25T06:50:21;98324.84;;;2.30;84.92
60611;BME280;46439;51.164;13.572;2023-02-25T06:52:50;98329.75;;;2.34;85.09
60611;BME280;46439;51.164;13.572;2023-02-25T06:55:18;98334.45;;;2.35;85.28
60611;BME280;46439;51.164;13.572;2023-02-25T06:57:47;98337.24;;;2.35;85.03
60611;BME280;46439;51.164;13.572;2023-02-25T07:00:17;98338.22;;;2.36;85.48
60611;BME280;46439;51.164;13.572;2023-02-25T07:02:46;98348.46;;;2.38;85.15
60611;BME280;46439;51.164;13.572;2023-02-25T07:05:14;98351.76;;;2.37;85.20
60611;BME280;46439;51.164;13.572;2023-02-25T07:07:42;98354.73;;;2.36;85.22
60611;BME280;46439;51.164;13.572;2023-02-25T07:10:12;98360.02;;;2.36;85.12
60611;BME280;46439;51.164;13.572;2023-02-25T07:12:41;98360.67;;;2.37;85.12
60611;BME280;46439;51.164;13.572;2023-02-25T07:15:10;98364.27;;;2.38;85.12
60611;BME280;46439;51.164;13.572;2023-02-25T07:17:39;98369.23;;;2.38;85.07
60611;BME280;46439;51.164;13.572;2023-02-25T07:20:09;98369.11;;;2.39;85.18
60611;BME280;46439;51.164;13.572;2023-02-25T07:22:38;98372.45;;;2.41;85.14
60611;BME280;46439;51.164;13.572;2023-02-25T07:25:10;98372.51;;;2.45;85.50
60611;BME280;46439;51.164;13.572;2023-02-25T07:27:40;98374.65;;;2.49;84.88
60611;BME280;46439;51.164;13.572;2023-02-25T07:30:11;98379.54;;;2.49;85.58
60611;BME280;46439;51.164;13.572;2023-02-25T07:32:41;98379.79;;;2.52;85.49
60611;BME280;46439;51.164;13.572;2023-02-25T07:35:10;98386.75;;;2.54;85.58
60611;BME280;46439;51.164;13.572;2023-02-25T07:37:39;98386.79;;;2.53;85.49
60611;BME280;46439;51.164;13.572;2023-02-25T07:40:10;98391.36;;;2.54;85.14
60611;BME280;46439;51.164;13.572;2023-02-25T07:42:44;98389.48;;;2.54;85.69
60611;BME280;46439;51.164;13.572;2023-02-25T07:45:12;98393.38;;;2.55;85.18
60611;BME280;46439;51.164;13.572;2023-02-25T07:47:41;98395.80;;;2.54;85.49
60611;BME280;46439;51.164;13.572;2023-02-25T07:50:11;98396.73;;;2.52;85.39
60611;BME280;46439;51.164;13.572;2023-02-25T07:52:40;98400.15;;;2.51;85.55
60611;BME280;46439;51.164;13.572;2023-02-25T07:55:10;98400.77;;;2.54;85.31
60611;BME280;46439;51.164;13.572;2023-02-25T07:57:38;98396.69;;;2.55;85.23
60611;BME280;46439;51.164;13.572;2023-02-25T08:00:09;98400.48;;;2.56;85.60
60611;BME280;46439;51.164;13.572;2023-02-25T08:02:38;98397.23;;;2.57;85.32
60611;BME280;46439;51.164;13.572;2023-02-25T08:05:07;98400.81;;;2.60;85.31
60611;BME280;46439;51.164;13.572;2023-02-25T08:07:36;98405.27;;;2.61;85.45
60611;BME280;46439;51.164;13.572;2023-02-25T08:10:06;98407.80;;;2.62;85.91
60611;BME280;46439;51.164;13.572;2023-02-25T08:12:35;98413.04;;;2.65;85.64
60611;BME280;46439;51.164;13.572;2023-02-25T08:15:07;98414.84;;;2.68;85.71
60611;BME280;46439;51.164;13.572;2023-02-25T08:17:35;98414.41;;;2.69;85.74
60611;BME280;46439;51.164;13.572;2023-02-25T08:20:06;98417.76;;;2.67;85.75
60611;BME280;46439;51.164;13.572;2023-02-25T08:22:36;98423.26;;;2.66;85.70
60611;BME280;46439;51.164;13.572;2023-02-25T08:25:06;98427.89;;;2.64;85.72
60611;BME280;46439;51.164;13.572;2023-02-25T08:27:36;98431.86;;;2.65;85.58
60611;BME280;46439;51.164;13.572;2023-02-25T08:30:06;98434.48;;;2.64;85.43
60611;BME280;46439;51.164;13.572;2023-02-25T08:32:37;98437.55;;;2.65;85.32
60611;BME280;46439;51.164;13.572;2023-02-25T08:35:07;98436.41;;;2.65;85.57
60611;BME280;46439;51.164;13.572;2023-02-25T08:37:35;98437.95;;;2.66;85.40
60611;BME280;46439;51.164;13.572;2023-02-25T08:40:06;98439.72;;;2.68;85.76
60611;BME280;46439;51.164;13.572;2023-02-25T08:42:38;98439.17;;;2.71;85.69
60611;BME280;46439;51.164;13.572;2023-02-25T08:45:08;98439.92;;;2.78;85.87
60611;BME280;46439;51.164;13.572;2023-02-25T08:47:37;98441.52;;;2.84;85.81
60611;BME280;46439;51.164;13.572;2023-02-25T08:50:07;98442.98;;;2.89;85.80
60611;BME280;46439;51.164;13.572;2023-02-25T08:52:37;98444.83;;;2.93;85.90
60611;BME280;46439;51.164;13.572;2023-02-25T08:55:07;98447.73;;;2.98;85.90
60611;BME280;46439;51.164;13.572;2023-02-25T08:57:36;98447.98;;;2.98;86.03
60611;BME280;46439;51.164;13.572;2023-02-25T09:00:06;98448.84;;;2.99;86.01
60611;BME280;46439;51.164;13.572;2023-02-25T09:02:35;98447.41;;;2.99;85.85
60611;BME280;46439;51.164;13.572;2023-02-25T09:05:03;98449.41;;;2.98;86.03
60611;BME280;46439;51.164;13.572;2023-02-25T09:07:32;98451.52;;;3.02;85.83
60611;BME280;46439;51.164;13.572;2023-02-25T09:10:01;98453.21;;;3.09;86.13
60611;BME280;46439;51.164;13.572;2023-02-25T09:12:33;98452.41;;;3.06;85.85
60611;BME280;46439;51.164;13.572;2023-02-25T09:15:05;98462.30;;;3.00;86.07
60611;BME280;46439;51.164;13.572;2023-02-25T09:17:33;98462.45;;;2.95;85.82
60611;BME280;46439;51.164;13.572;2023-02-25T09:20:02;98464.54;;;2.88;85.98
60611;BME280;46439;51.164;13.572;2023-02-25T09:22:34;98472.30;;;2.79;85.36
60611;BME280;46439;51.164;13.572;2023-02-25T09:25:03;98473.06;;;2.73;85.38
60611;BME280;46439;51.164;13.572;2023-02-25T09:27:32;98474.28;;;2.68;85.35
60611;BME280;46439;51.164;13.572;2023-02-25T09:30:01;98476.38;;;2.65;85.29
60611;BME280;46439;51.164;13.572;2023-02-25T09:32:29;98482.90;;;2.66;85.47
60611;BME280;46439;51.164;13.572;2023-02-25T09:34:58;98488.60;;;2.64;85.50
60611;BME280;46439;51.164;13.572;2023-02-25T09:37:34;98491.51;;;2.62;85.51
60611;BME280;46439;51.164;13.572;2023-02-25T09:40:04;98498.63;;;2.60;85.43
60611;BME280;46439;51.164;13.572;2023-02-25T09:42:43;98496.34;;;2.57;85.38
60611;BME280;46439;51.164;13.572;2023-02-25T09:45:17;98504.89;;;2.55;85.24
60611;BME280;46439;51.164;13.572;2023-02-25T09:47:51;98509.27;;;2.56;85.73
60611;BME280;46439;51.164;13.572;2023-02-25T09:50:26;98510.05;;;2.53;85.33
60611;BME280;46439;51.164;13.572;2023-02-25T09:53:03;98516.73;;;2.50;85.16
60611;BME280;46439;51.164;13.572;2023-02-25T09:55:34;98521.03;;;2.48;85.14
60611;BME280;46439;51.164;13.572;2023-02-25T09:58:07;98523.61;;;2.45;85.21
60611;BME280;46439;51.164;13.572;2023-02-25T10:00:46;98531.27;;;2.44;85.48
60611;BME280;46439;51.164;13.572;2023-02-25T10:03:23;98533.47;;;2.41;85.53
60611;BME280;46439;51.164;13.572;2023-02-25T10:05:59;98536.45;;;2.38;85.42
60611;BME280;46439;51.164;13.572;2023-02-25T10:08:36;98538.70;;;2.37;85.20
60611;BME280;46439;51.164;13.572;2023-02-25T10:11:10;98537.87;;;2.35;85.23
60611;BME280;46439;51.164;13.572;2023-02-25T10:13:47;98545.17;;;2.31;85.09
60611;BME280;46439;51.164;13.572;2023-02-25T10:16:37;98548.79;;;2.27;85.09
60611;BME280;46439;51.164;13.572;2023-02-25T10:19:17;98556.90;;;2.26;85.09
60611;BME280;46439;51.164;13.572;2023-02-25T10:22:10;98560.66;;;2.22;85.38
60611;BME280;46439;51.164;13.572;2023-02-25T10:24:47;98567.16;;;2.19;85.20
60611;BME280;46439;51.164;13.572;2023-02-25T10:27:22;98569.39;;;2.17;85.34
60611;BME280;46439;51.164;13.572;2023-02-25T10:29:58;98575.56;;;2.14;85.19
60611;BME280;46439;51.164;13.572;2023-02-25T10:32:32;98580.51;;;2.13;84.98
60611;BME280;46439;51.164;13.572;2023-02-25T10:35:11;98581.91;;;2.14;85.09
60611;BME280;46439;51.164;13.572;2023-02-25T10:37:41;98586.74;;;2.16;85.15
60611;BME280;46439;51.164;13.572;2023-02-25T10:40:15;98586.58;;;2.17;85.45
60611;BME280;46439;51.164;13.572;2023-02-25T10:42:52;98590.06;;;2.20;85.39
60611;BME280;46439;51.164;13.572;2023-02-25T10:45:25;98594.50;;;2.16;85.56
60611;BME280;46439;51.164;13.572;2023-02-25T10:48:05;98592.23;;;2.13;85.08
60611;BME280;46439;51.164;13.572;2023-02-25T10:50:34;98596.73;;;2.11;85.38
60611;BME280;46439;51.164;13.572;2023-02-25T10:53:04;98600.17;;;2.13;85.38
60611;BME280;46439;51.164;13.572;2023-02-25T10:55:45;98603.05;;;2.16;85.71
60611;BME280;46439;51.164;13.572;2023-02-25T10:58:26;98607.71;;;2.17;85.35
60611;BME280;46439;51.164;13.572;2023-02-25T11:01:00;98611.39;;;2.19;85.21
60611;BME280;46439;51.164;13.572;2023-02-25T11:03:32;98610.13;;;2.21;85.51
60611;BME280;46439;51.164;13.572;2023-02-25T11:06:16;98611.42;;;2.24;85.38
60611;BME280;46439;51.164;13.572;2023-02-25T11:08:46;98616.80;;;2.29;85.68
60611;BME280;46439;51.164;13.572;2023-02-25T11:11:20;98617.52;;;2.34;85.75
60611;BME280;46439;51.164;13.572;2023-02-25T11:14:00;98619.23;;;2.36;85.62
60611;BME280;46439;51.164;13.572;2023-02-25T11:16:32;98618.69;;;2.38;85.80
60611;BME280;46439;51.164;13.572;2023-02-25T11:19:08;98623.47;;;2.38;85.69
60611;BME280;46439;51.164;13.572;2023-02-25T11:21:39;98624.98;;;2.41;85.78
60611;BME280;46439;51.164;13.572;2023-02-25T11:24:13;98627.70;;;2.43;85.93
60611;BME280;46439;51.164;13.572;2023-02-25T11:26:45;98627.41;;;2.46;85.51
60611;BME280;46439;51.164;13.572;2023-02-25T11:29:18;98623.58;;;2.47;86.02
60611;BME280;46439;51.164;13.572;2023-02-25T11:31:49;98625.14;;;2.49;86.19
60611;BME280;46439;51.164;13.572;2023-02-25T11:34:22;98628.25;;;2.50;85.90
60611;BME280;46439;51.164;13.572;2023-02-25T11:36:52;98626.42;;;2.51;85.88
60611;BME280;46439;51.164;13.572;2023-02-25T11:39:23;98628.13;;;2.51;85.81
60611;BME280;46439;51.164;13.572;2023-02-25T11:41:54;98629.44;;;2.47;85.68
60611;BME280;46439;51.164;13.572;2023-02-25T11:44:39;98630.08;;;2.43;85.78
60611;BME280;46439;51.164;13.572;2023-02-25T11:47:20;98637.10;;;2.42;85.72
60611;BME280;46439;51.164;13.572;2023-02-25T11:50:07;98636.79;;;2.40;85.68
60611;BME280;46439;51.164;13.572;2023-02-25T11:52:43;98636.77;;;2.40;85.76
60611;BME280;46439;51.164;13.572;2023-02-25T11:55:21;98639.90;;;2.42;85.68
60611;BME280;46439;51.164;13.572;2023-02-25T11:58:03;98646.65;;;2.42;85.82
60611;BME280;46439;51.164;13.572;2023-02-25T12:00:40;98650.44;;;2.40;85.70
60611;BME280;46439;51.164;13.572;2023-02-25T12:03:33;98653.55;;;2.41;85.72
60611;BME280;46439;51.164;13.572;2023-02-25T12:06:23;98655.18;;;2.42;85.94
60611;BME280;46439;51.164;13.572;2023-02-25T12:09:07;98661.23;;;2.42;86.02
60611;BME280;46439;51.164;13.572;2023-02-25T12:12:02;98658.16;;;2.44;85.93
60611;BME280;46439;51.164;13.572;2023-02-25T12:15:04;98661.51;;;2.49;85.92
60611;BME280;46439;51.164;13.572;2023-02-25T12:17:57;98663.30;;;2.55;85.96
60611;BME280;46439;51.164;13.572;2023-02-25T12:21:01;98668.59;;;2.59;85.88
60611;BME280;46439;51.164;13.572;2023-02-25T12:30:03;98676.55;;;2.67;85.98
60611;BME280;46439;51.164;13.572;2023-02-25T12:32:46;98679.30;;;2.66;85.92
60611;BME280;46439;51.164;13.572;2023-02-25T12:35:53;98683.48;;;2.67;86.18
60611;BME280;46439;51.164;13.572;2023-02-25T12:39:01;98690.56;;;2.67;86.38
60611;BME280;46439;51.164;13.572;2023-02-25T12:41:42;98692.17;;;2.64;85.88
60611;BME280;46439;51.164;13.572;2023-02-25T12:44:33;98697.05;;;2.67;86.16
60611;BME280;46439;51.164;13.572;2023-02-25T12:47:15;98697.86;;;2.69;86.34
60611;BME280;46439;51.164;13.572;2023-02-25T12:50:15;98697.67;;;2.71;86.20
60611;BME280;46439;51.164;13.572;2023-02-25T12:53:00;98703.59;;;2.72;86.26
60611;BME280;46439;51.164;13.572;2023-02-25T12:55:44;98702.15;;;2.73;86.31
60611;BME280;46439;51.164;13.572;2023-02-25T12:58:47;98705.46;;;2.69;86.31
60611;BME280;46439;51.164;13.572;2023-02-25T13:01:32;98714.35;;;2.62;86.36
60611;BME280;46439;51.164;13.572;2023-02-25T13:04:26;98715.20;;;2.63;86.12
60611;BME280;46439;51.164;13.572;2023-02-25T13:07:32;98716.48;;;2.59;85.90
60611;BME280;46439;51.164;13.572;2023-02-25T13:10:21;98718.06;;;2.58;85.96
60611;BME280;46439;51.164;13.572;2023-02-25T13:13:12;98719.21;;;2.55;86.15
60611;BME280;46439;51.164;13.572;2023-02-25T13:15:56;98726.02;;;2.53;85.94
60611;BME280;46439;51.164;13.572;2023-02-25T13:18:37;98727.28;;;2.51;85.99
60611;BME280;46439;51.164;13.572;2023-02-25T13:21:31;98734.86;;;2.53;86.11
60611;BME280;46439;51.164;13.572;2023-02-25T13:24:13;98729.77;;;2.56;86.18
60611;BME280;46439;51.164;13.572;2023-02-25T13:27:01;98729.07;;;2.61;85.97
60611;BME280;46439;51.164;13.572;2023-02-25T13:29:44;98732.03;;;2.67;86.38
60611;BME280;46439;51.164;13.572;2023-02-25T13:32:27;98736.08;;;2.71;86.28
60611;BME280;46439;51.164;13.572;2023-02-25T13:35:11;98736.79;;;2.73;86.59
60611;BME280;46439;51.164;13.572;2023-02-25T13:37:52;98736.77;;;2.71;86.35
60611;BME280;46439;51.164;13.572;2023-02-25T13:40:38;98737.81;;;2.71;86.19
60611;BME280;46439;51.164;13.572;2023-02-25T13:43:35;98736.23;;;2.74;86.26
60611;BME280;46439;51.164;13.572;2023-02-25T13:46:32;98734.83;;;2.73;86.37